KTTD

Details ICAO KTTD (TTD)
Name Portland Troutdale
Region United States
Timezone America/Los_Angeles (UTC-8.0)
Plans Departing 18
Arriving 18
Stats Elevation 39 ft / 12 m (AMSL)
Location 45.549366° -122.401252°
Runways 1
Magnetic Variation 15.250° E
Sunrise 2017-12-15 15:44:42 UTC / 2017-12-15 07:44:42 Local
Sunset 2017-12-16 00:27:55 UTC / 2017-12-15 16:27:55 Local
Advertisement - Login to hide

Runways

ID Width Length Bearing (true) Bearing (mag) Surface Threshold Offset Overrun Length
07 150 ft / 46 m 5,385 ft / 1,641 m 88.65° 73.40° Asphalt 0 ft / 0 m 0 ft / 0 m
25 150 ft / 46 m 5,385 ft / 1,641 m 268.67° 253.42° Asphalt 0 ft / 0 m 390 ft / 119 m

Map

Weather


0- 5 10 15 20 25 30 35+ Temperature / ° C

Clouds and Precipitation
Forecast for 2017-12-16 00:00 UTC. Updated 28 minutes ago

Ground ~20,000 ft ~40,000 ft Winds

METAR

KTTD 151853Z 00000KT 10SM BKN041 OVC075 03/M01 A3031 RMK AO2 RAE41 SLP262 P0000 T00331006

TAF

KTTD 151731Z 1518/1618 10005KT P6SM OVC050 FM151900 VRB03KT P6SM -RA SCT025 OVC050 FM160000 24004KT P6SM VCSH SCT025 BKN035 OVC050 FM160300 26005KT P6SM VCSH SCT025 BKN035 OVC050

Frequencies

Recorded 135.62 MHz ASOS
Unicom 122.95 MHz UNICOM
Tower 120.90 MHz TROUTDALE TWR
Approach 118.10 MHz APP
Unicom 120.90 MHz CTAF
Ground 121.80 MHz GND
Approach 124.35 MHz APP
Departure 124.35 MHz DEP
Warning: Do not use this data for real-world aviation or navigation. No guarantee of current accuracy is given.